sensor_id;sensor_type;location;lat;lon;timestamp;P1;durP1;ratioP1;P2;durP2;ratioP2
14116;SDS011;7137;51.436;6.544;2024-03-02T00:01:23;3.77;;;1.40;;
14116;SDS011;7137;51.436;6.544;2024-03-02T00:04:24;4.10;;;1.50;;
14116;SDS011;7137;51.436;6.544;2024-03-02T00:07:26;5.07;;;1.47;;
14116;SDS011;7137;51.436;6.544;2024-03-02T00:10:34;4.37;;;1.53;;
14116;SDS011;7137;51.436;6.544;2024-03-02T00:13:39;3.30;;;1.30;;
14116;SDS011;7137;51.436;6.544;2024-03-02T00:16:42;3.10;;;1.30;;
14116;SDS011;7137;51.436;6.544;2024-03-02T00:19:44;3.57;;;1.23;;
14116;SDS011;7137;51.436;6.544;2024-03-02T00:22:46;2.33;;;1.30;;
14116;SDS011;7137;51.436;6.544;2024-03-02T00:25:48;4.57;;;1.43;;
14116;SDS011;7137;51.436;6.544;2024-03-02T00:28:53;3.47;;;1.30;;
14116;SDS011;7137;51.436;6.544;2024-03-02T00:31:58;3.83;;;1.37;;
14116;SDS011;7137;51.436;6.544;2024-03-02T00:35:03;2.83;;;1.30;;
14116;SDS011;7137;51.436;6.544;2024-03-02T00:38:06;3.40;;;1.50;;
14116;SDS011;7137;51.436;6.544;2024-03-02T00:41:07;2.57;;;1.20;;
14116;SDS011;7137;51.436;6.544;2024-03-02T00:44:16;3.00;;;1.40;;
14116;SDS011;7137;51.436;6.544;2024-03-02T00:47:24;2.50;;;1.20;;
14116;SDS011;7137;51.436;6.544;2024-03-02T00:50:26;2.63;;;1.20;;
14116;SDS011;7137;51.436;6.544;2024-03-02T00:53:27;2.83;;;1.23;;
14116;SDS011;7137;51.436;6.544;2024-03-02T00:56:29;2.87;;;1.30;;
14116;SDS011;7137;51.436;6.544;2024-03-02T00:59:31;3.30;;;1.20;;
14116;SDS011;7137;51.436;6.544;2024-03-02T01:02:34;2.77;;;1.20;;
14116;SDS011;7137;51.436;6.544;2024-03-02T01:05:36;3.17;;;1.30;;
14116;SDS011;7137;51.436;6.544;2024-03-02T01:08:37;2.80;;;1.33;;
14116;SDS011;7137;51.436;6.544;2024-03-02T01:11:39;3.93;;;1.40;;
14116;SDS011;7137;51.436;6.544;2024-03-02T01:14:41;2.83;;;1.27;;
14116;SDS011;7137;51.436;6.544;2024-03-02T01:17:44;3.97;;;1.40;;
14116;SDS011;7137;51.436;6.544;2024-03-02T01:20:45;2.73;;;1.10;;
14116;SDS011;7137;51.436;6.544;2024-03-02T01:23:47;3.70;;;1.40;;
14116;SDS011;7137;51.436;6.544;2024-03-02T01:26:48;2.60;;;1.40;;
14116;SDS011;7137;51.436;6.544;2024-03-02T01:29:50;3.87;;;1.53;;
14116;SDS011;7137;51.436;6.544;2024-03-02T01:32:53;5.23;;;1.63;;
14116;SDS011;7137;51.436;6.544;2024-03-02T01:35:55;3.43;;;1.40;;
14116;SDS011;7137;51.436;6.544;2024-03-02T01:38:56;4.73;;;1.30;;
14116;SDS011;7137;51.436;6.544;2024-03-02T01:41:58;3.03;;;1.10;;
14116;SDS011;7137;51.436;6.544;2024-03-02T01:44:59;2.70;;;1.23;;
14116;SDS011;7137;51.436;6.544;2024-03-02T01:48:02;4.63;;;1.40;;
14116;SDS011;7137;51.436;6.544;2024-03-02T01:51:04;3.30;;;1.20;;
14116;SDS011;7137;51.436;6.544;2024-03-02T01:54:07;3.00;;;1.20;;
14116;SDS011;7137;51.436;6.544;2024-03-02T01:57:08;2.60;;;1.23;;
14116;SDS011;7137;51.436;6.544;2024-03-02T02:00:11;2.37;;;1.30;;
14116;SDS011;7137;51.436;6.544;2024-03-02T02:03:14;4.50;;;1.40;;
14116;SDS011;7137;51.436;6.544;2024-03-02T02:06:16;4.03;;;1.30;;
14116;SDS011;7137;51.436;6.544;2024-03-02T02:09:17;2.60;;;1.20;;
14116;SDS011;7137;51.436;6.544;2024-03-02T02:12:19;3.77;;;1.40;;
14116;SDS011;7137;51.436;6.544;2024-03-02T02:15:24;3.33;;;1.30;;
14116;SDS011;7137;51.436;6.544;2024-03-02T02:18:27;4.23;;;1.20;;
14116;SDS011;7137;51.436;6.544;2024-03-02T02:21:30;3.53;;;1.30;;
14116;SDS011;7137;51.436;6.544;2024-03-02T02:24:31;3.57;;;1.40;;
14116;SDS011;7137;51.436;6.544;2024-03-02T02:27:33;3.80;;;1.53;;
14116;SDS011;7137;51.436;6.544;2024-03-02T02:30:35;2.60;;;1.20;;
14116;SDS011;7137;51.436;6.544;2024-03-02T02:33:38;3.53;;;1.40;;
14116;SDS011;7137;51.436;6.544;2024-03-02T02:36:41;3.50;;;1.50;;
14116;SDS011;7137;51.436;6.544;2024-03-02T02:39:44;3.37;;;1.37;;
14116;SDS011;7137;51.436;6.544;2024-03-02T02:42:46;2.63;;;1.33;;
14116;SDS011;7137;51.436;6.544;2024-03-02T02:45:48;4.37;;;1.40;;
14116;SDS011;7137;51.436;6.544;2024-03-02T02:48:49;3.47;;;1.60;;
14116;SDS011;7137;51.436;6.544;2024-03-02T02:51:54;3.60;;;1.30;;
14116;SDS011;7137;51.436;6.544;2024-03-02T02:54:56;3.53;;;1.30;;
14116;SDS011;7137;51.436;6.544;2024-03-02T02:57:57;2.97;;;1.40;;
14116;SDS011;7137;51.436;6.544;2024-03-02T03:00:59;3.80;;;1.80;;
14116;SDS011;7137;51.436;6.544;2024-03-02T03:04:00;4.40;;;1.70;;
14116;SDS011;7137;51.436;6.544;2024-03-02T03:07:03;3.20;;;1.60;;
14116;SDS011;7137;51.436;6.544;2024-03-02T03:10:06;4.87;;;1.70;;
14116;SDS011;7137;51.436;6.544;2024-03-02T03:13:08;5.50;;;1.77;;
14116;SDS011;7137;51.436;6.544;2024-03-02T03:16:10;3.83;;;1.63;;
14116;SDS011;7137;51.436;6.544;2024-03-02T03:19:11;3.40;;;1.60;;
14116;SDS011;7137;51.436;6.544;2024-03-02T03:22:14;4.47;;;1.60;;
14116;SDS011;7137;51.436;6.544;2024-03-02T03:25:16;5.13;;;1.63;;
14116;SDS011;7137;51.436;6.544;2024-03-02T03:28:18;2.10;;;1.20;;
14116;SDS011;7137;51.436;6.544;2024-03-02T03:31:19;2.97;;;1.00;;
14116;SDS011;7137;51.436;6.544;2024-03-02T03:34:21;3.03;;;0.70;;
14116;SDS011;7137;51.436;6.544;2024-03-02T03:37:24;1.80;;;0.50;;
14116;SDS011;7137;51.436;6.544;2024-03-02T03:40:32;2.60;;;0.50;;
14116;SDS011;7137;51.436;6.544;2024-03-02T03:43:34;1.53;;;0.50;;
14116;SDS011;7137;51.436;6.544;2024-03-02T03:46:36;1.37;;;0.50;;
14116;SDS011;7137;51.436;6.544;2024-03-02T03:49:38;2.17;;;0.60;;
14116;SDS011;7137;51.436;6.544;2024-03-02T03:52:41;1.47;;;0.50;;
14116;SDS011;7137;51.436;6.544;2024-03-02T03:55:42;1.50;;;0.50;;
14116;SDS011;7137;51.436;6.544;2024-03-02T03:58:46;1.67;;;0.50;;
14116;SDS011;7137;51.436;6.544;2024-03-02T04:01:48;1.87;;;0.60;;
14116;SDS011;7137;51.436;6.544;2024-03-02T04:04:49;1.53;;;0.60;;
14116;SDS011;7137;51.436;6.544;2024-03-02T04:07:52;1.13;;;0.50;;
14116;SDS011;7137;51.436;6.544;2024-03-02T04:10:54;1.50;;;0.50;;
14116;SDS011;7137;51.436;6.544;2024-03-02T04:13:55;1.30;;;0.50;;
14116;SDS011;7137;51.436;6.544;2024-03-02T04:16:57;0.50;;;0.40;;
14116;SDS011;7137;51.436;6.544;2024-03-02T04:19:58;0.33;;;0.33;;
14116;SDS011;7137;51.436;6.544;2024-03-02T04:23:02;2.07;;;0.60;;
14116;SDS011;7137;51.436;6.544;2024-03-02T04:26:03;0.60;;;0.50;;
14116;SDS011;7137;51.436;6.544;2024-03-02T04:29:05;2.40;;;0.50;;
14116;SDS011;7137;51.436;6.544;2024-03-02T04:32:07;1.80;;;0.60;;
14116;SDS011;7137;51.436;6.544;2024-03-02T04:35:08;1.70;;;0.60;;
14116;SDS011;7137;51.436;6.544;2024-03-02T04:38:11;1.43;;;0.53;;
14116;SDS011;7137;51.436;6.544;2024-03-02T04:41:13;0.80;;;0.40;;
14116;SDS011;7137;51.436;6.544;2024-03-02T04:44:15;1.90;;;0.50;;
14116;SDS011;7137;51.436;6.544;2024-03-02T04:47:16;3.60;;;0.80;;
14116;SDS011;7137;51.436;6.544;2024-03-02T04:50:18;0.83;;;0.47;;
14116;SDS011;7137;51.436;6.544;2024-03-02T04:53:20;1.07;;;0.50;;
14116;SDS011;7137;51.436;6.544;2024-03-02T04:56:22;1.33;;;0.50;;
14116;SDS011;7137;51.436;6.544;2024-03-02T04:59:49;0.90;;;0.50;;
14116;SDS011;7137;51.436;6.544;2024-03-02T05:02:50;2.07;;;0.50;;
14116;SDS011;7137;51.436;6.544;2024-03-02T05:05:52;0.60;;;0.40;;
14116;SDS011;7137;51.436;6.544;2024-03-02T05:08:55;1.20;;;0.70;;
14116;SDS011;7137;51.436;6.544;2024-03-02T05:11:57;1.67;;;0.60;;
14116;SDS011;7137;51.436;6.544;2024-03-02T05:15:22;0.80;;;0.50;;
14116;SDS011;7137;51.436;6.544;2024-03-02T05:18:24;2.43;;;0.87;;
14116;SDS011;7137;51.436;6.544;2024-03-02T05:21:25;1.73;;;0.70;;
14116;SDS011;7137;51.436;6.544;2024-03-02T05:24:28;2.20;;;0.90;;
14116;SDS011;7137;51.436;6.544;2024-03-02T05:27:30;1.87;;;0.73;;
14116;SDS011;7137;51.436;6.544;2024-03-02T05:30:32;1.57;;;0.80;;
14116;SDS011;7137;51.436;6.544;2024-03-02T05:33:34;2.03;;;0.80;;
14116;SDS011;7137;51.436;6.544;2024-03-02T05:36:36;1.50;;;0.90;;
14116;SDS011;7137;51.436;6.544;2024-03-02T05:39:40;2.47;;;0.90;;
14116;SDS011;7137;51.436;6.544;2024-03-02T05:42:43;2.17;;;0.83;;
14116;SDS011;7137;51.436;6.544;2024-03-02T05:45:45;3.23;;;1.20;;
14116;SDS011;7137;51.436;6.544;2024-03-02T05:48:46;3.47;;;1.10;;
14116;SDS011;7137;51.436;6.544;2024-03-02T05:51:48;2.87;;;1.30;;
14116;SDS011;7137;51.436;6.544;2024-03-02T05:54:51;2.57;;;1.10;;
14116;SDS011;7137;51.436;6.544;2024-03-02T05:57:52;3.17;;;1.30;;
14116;SDS011;7137;51.436;6.544;2024-03-02T06:01:11;2.07;;;1.10;;
14116;SDS011;7137;51.436;6.544;2024-03-02T06:04:13;2.97;;;1.30;;
14116;SDS011;7137;51.436;6.544;2024-03-02T06:07:15;3.50;;;1.60;;
14116;SDS011;7137;51.436;6.544;2024-03-02T06:10:18;2.93;;;1.30;;
14116;SDS011;7137;51.436;6.544;2024-03-02T06:13:20;2.33;;;1.40;;
14116;SDS011;7137;51.436;6.544;2024-03-02T06:16:22;2.70;;;1.40;;
14116;SDS011;7137;51.436;6.544;2024-03-02T06:19:24;4.20;;;1.60;;
14116;SDS011;7137;51.436;6.544;2024-03-02T06:22:25;3.43;;;1.43;;
14116;SDS011;7137;51.436;6.544;2024-03-02T06:25:28;4.73;;;1.60;;
14116;SDS011;7137;51.436;6.544;2024-03-02T06:28:30;4.00;;;1.87;;
14116;SDS011;7137;51.436;6.544;2024-03-02T06:31:31;4.57;;;1.97;;
14116;SDS011;7137;51.436;6.544;2024-03-02T06:34:33;4.43;;;1.90;;
14116;SDS011;7137;51.436;6.544;2024-03-02T06:37:36;4.00;;;1.90;;
14116;SDS011;7137;51.436;6.544;2024-03-02T06:40:38;5.43;;;2.00;;
14116;SDS011;7137;51.436;6.544;2024-03-02T06:43:40;4.93;;;1.87;;
14116;SDS011;7137;51.436;6.544;2024-03-02T06:46:42;4.10;;;1.73;;
14116;SDS011;7137;51.436;6.544;2024-03-02T06:49:43;4.70;;;1.80;;
14116;SDS011;7137;51.436;6.544;2024-03-02T06:52:45;3.83;;;1.90;;
14116;SDS011;7137;51.436;6.544;2024-03-02T06:55:48;4.37;;;2.30;;
14116;SDS011;7137;51.436;6.544;2024-03-02T06:58:49;4.00;;;1.90;;
14116;SDS011;7137;51.436;6.544;2024-03-02T07:01:52;5.80;;;2.23;;
14116;SDS011;7137;51.436;6.544;2024-03-02T07:04:53;6.10;;;1.87;;
14116;SDS011;7137;51.436;6.544;2024-03-02T07:07:55;4.13;;;1.93;;
14116;SDS011;7137;51.436;6.544;2024-03-02T07:10:58;4.63;;;1.90;;
14116;SDS011;7137;51.436;6.544;2024-03-02T07:13:59;3.67;;;1.80;;
14116;SDS011;7137;51.436;6.544;2024-03-02T07:17:01;4.23;;;2.00;;
14116;SDS011;7137;51.436;6.544;2024-03-02T07:20:03;4.30;;;1.77;;
14116;SDS011;7137;51.436;6.544;2024-03-02T07:23:06;4.20;;;1.83;;
14116;SDS011;7137;51.436;6.544;2024-03-02T07:26:10;5.40;;;1.93;;
14116;SDS011;7137;51.436;6.544;2024-03-02T07:29:12;4.27;;;1.70;;
14116;SDS011;7137;51.436;6.544;2024-03-02T07:32:13;4.90;;;1.90;;
14116;SDS011;7137;51.436;6.544;2024-03-02T07:35:15;4.77;;;2.30;;
14116;SDS011;7137;51.436;6.544;2024-03-02T07:38:18;4.10;;;2.00;;
14116;SDS011;7137;51.436;6.544;2024-03-02T07:41:21;3.87;;;1.90;;
14116;SDS011;7137;51.436;6.544;2024-03-02T07:44:22;4.43;;;2.00;;
14116;SDS011;7137;51.436;6.544;2024-03-02T07:47:24;4.67;;;2.03;;
14116;SDS011;7137;51.436;6.544;2024-03-02T07:50:26;5.63;;;1.93;;
14116;SDS011;7137;51.436;6.544;2024-03-02T07:53:27;4.10;;;1.60;;
14116;SDS011;7137;51.436;6.544;2024-03-02T07:56:30;3.50;;;2.00;;
14116;SDS011;7137;51.436;6.544;2024-03-02T07:59:32;3.63;;;2.03;;
14116;SDS011;7137;51.436;6.544;2024-03-02T08:02:34;4.10;;;1.77;;
14116;SDS011;7137;51.436;6.544;2024-03-02T08:05:35;5.13;;;1.97;;
14116;SDS011;7137;51.436;6.544;2024-03-02T08:08:37;4.37;;;2.03;;
14116;SDS011;7137;51.436;6.544;2024-03-02T08:11:39;6.67;;;1.90;;
14116;SDS011;7137;51.436;6.544;2024-03-02T08:14:41;2.60;;;1.40;;
14116;SDS011;7137;51.436;6.544;2024-03-02T08:17:43;4.80;;;1.70;;
14116;SDS011;7137;51.436;6.544;2024-03-02T08:20:48;3.40;;;1.63;;
14116;SDS011;7137;51.436;6.544;2024-03-02T08:23:50;4.13;;;1.60;;
14116;SDS011;7137;51.436;6.544;2024-03-02T08:26:53;6.27;;;1.90;;
14116;SDS011;7137;51.436;6.544;2024-03-02T08:29:54;3.63;;;1.77;;
14116;SDS011;7137;51.436;6.544;2024-03-02T08:32:56;3.33;;;1.50;;
14116;SDS011;7137;51.436;6.544;2024-03-02T08:35:57;3.43;;;1.67;;
14116;SDS011;7137;51.436;6.544;2024-03-02T08:38:59;3.50;;;1.33;;
14116;SDS011;7137;51.436;6.544;2024-03-02T08:42:02;2.23;;;1.33;;
14116;SDS011;7137;51.436;6.544;2024-03-02T08:45:05;4.67;;;1.70;;
14116;SDS011;7137;51.436;6.544;2024-03-02T08:48:08;2.70;;;1.40;;
14116;SDS011;7137;51.436;6.544;2024-03-02T08:51:09;3.40;;;1.57;;
14116;SDS011;7137;51.436;6.544;2024-03-02T08:54:11;2.83;;;1.20;;
14116;SDS011;7137;51.436;6.544;2024-03-02T08:57:14;4.10;;;1.20;;
14116;SDS011;7137;51.436;6.544;2024-03-02T09:00:15;4.07;;;1.50;;
14116;SDS011;7137;51.436;6.544;2024-03-02T09:03:18;2.83;;;1.40;;
14116;SDS011;7137;51.436;6.544;2024-03-02T09:06:20;3.63;;;1.23;;
14116;SDS011;7137;51.436;6.544;2024-03-02T09:09:21;3.50;;;1.30;;
14116;SDS011;7137;51.436;6.544;2024-03-02T09:12:24;3.83;;;1.40;;
14116;SDS011;7137;51.436;6.544;2024-03-02T09:15:26;3.03;;;1.40;;
14116;SDS011;7137;51.436;6.544;2024-03-02T09:18:28;2.50;;;1.23;;
14116;SDS011;7137;51.436;6.544;2024-03-02T09:21:29;3.07;;;1.30;;
14116;SDS011;7137;51.436;6.544;2024-03-02T09:24:31;3.40;;;1.40;;
14116;SDS011;7137;51.436;6.544;2024-03-02T09:27:37;2.50;;;1.13;;
14116;SDS011;7137;51.436;6.544;2024-03-02T09:30:38;3.83;;;1.70;;
14116;SDS011;7137;51.436;6.544;2024-03-02T09:33:40;4.10;;;1.40;;
14116;SDS011;7137;51.436;6.544;2024-03-02T09:36:41;2.70;;;1.20;;
14116;SDS011;7137;51.436;6.544;2024-03-02T09:39:43;3.00;;;1.30;;
14116;SDS011;7137;51.436;6.544;2024-03-02T09:42:46;3.43;;;1.20;;
14116;SDS011;7137;51.436;6.544;2024-03-02T09:45:52;3.17;;;1.03;;
14116;SDS011;7137;51.436;6.544;2024-03-02T09:48:54;2.67;;;0.87;;
14116;SDS011;7137;51.436;6.544;2024-03-02T09:51:56;3.70;;;1.30;;
14116;SDS011;7137;51.436;6.544;2024-03-02T09:54:58;2.07;;;0.90;;
14116;SDS011;7137;51.436;6.544;2024-03-02T09:58:01;3.37;;;1.20;;
14116;SDS011;7137;51.436;6.544;2024-03-02T10:01:05;3.37;;;1.10;;
14116;SDS011;7137;51.436;6.544;2024-03-02T10:04:06;2.90;;;1.27;;
14116;SDS011;7137;51.436;6.544;2024-03-02T10:07:09;2.70;;;1.00;;
14116;SDS011;7137;51.436;6.544;2024-03-02T10:10:13;3.30;;;1.10;;
14116;SDS011;7137;51.436;6.544;2024-03-02T10:13:16;2.97;;;1.10;;
14116;SDS011;7137;51.436;6.544;2024-03-02T10:16:18;3.87;;;1.20;;
14116;SDS011;7137;51.436;6.544;2024-03-02T10:19:20;4.00;;;1.07;;
14116;SDS011;7137;51.436;6.544;2024-03-02T10:22:22;3.50;;;0.90;;
14116;SDS011;7137;51.436;6.544;2024-03-02T10:25:30;3.50;;;1.00;;
14116;SDS011;7137;51.436;6.544;2024-03-02T10:28:34;2.93;;;0.93;;
14116;SDS011;7137;51.436;6.544;2024-03-02T10:31:36;3.57;;;0.90;;
14116;SDS011;7137;51.436;6.544;2024-03-02T10:34:39;3.57;;;0.90;;
14116;SDS011;7137;51.436;6.544;2024-03-02T10:37:42;3.97;;;1.00;;
14116;SDS011;7137;51.436;6.544;2024-03-02T10:40:46;2.93;;;0.73;;
14116;SDS011;7137;51.436;6.544;2024-03-02T10:43:49;1.97;;;0.70;;
14116;SDS011;7137;51.436;6.544;2024-03-02T10:46:55;2.43;;;1.03;;
14116;SDS011;7137;51.436;6.544;2024-03-02T10:49:58;3.73;;;1.17;;
14116;SDS011;7137;51.436;6.544;2024-03-02T10:53:02;3.57;;;0.80;;
14116;SDS011;7137;51.436;6.544;2024-03-02T10:56:07;3.27;;;0.80;;
14116;SDS011;7137;51.436;6.544;2024-03-02T10:59:15;3.27;;;0.90;;
14116;SDS011;7137;51.436;6.544;2024-03-02T11:02:22;2.43;;;0.70;;
14116;SDS011;7137;51.436;6.544;2024-03-02T11:05:27;2.40;;;0.80;;
14116;SDS011;7137;51.436;6.544;2024-03-02T11:08:29;2.80;;;0.93;;
14116;SDS011;7137;51.436;6.544;2024-03-02T11:11:32;3.63;;;0.90;;
14116;SDS011;7137;51.436;6.544;2024-03-02T11:14:40;2.67;;;0.70;;
14116;SDS011;7137;51.436;6.544;2024-03-02T11:17:44;2.03;;;0.80;;
14116;SDS011;7137;51.436;6.544;2024-03-02T11:20:47;2.87;;;0.93;;
14116;SDS011;7137;51.436;6.544;2024-03-02T11:23:49;2.70;;;0.90;;
14116;SDS011;7137;51.436;6.544;2024-03-02T11:26:51;2.50;;;0.80;;
14116;SDS011;7137;51.436;6.544;2024-03-02T11:29:54;2.93;;;0.83;;
14116;SDS011;7137;51.436;6.544;2024-03-02T11:32:55;4.33;;;1.30;;
14116;SDS011;7137;51.436;6.544;2024-03-02T11:35:57;3.57;;;1.00;;
14116;SDS011;7137;51.436;6.544;2024-03-02T11:38:59;1.73;;;0.80;;
14116;SDS011;7137;51.436;6.544;2024-03-02T11:42:02;3.33;;;1.00;;
14116;SDS011;7137;51.436;6.544;2024-03-02T11:45:09;3.77;;;1.10;;
14116;SDS011;7137;51.436;6.544;2024-03-02T11:48:11;3.90;;;0.83;;
14116;SDS011;7137;51.436;6.544;2024-03-02T11:51:15;3.83;;;0.87;;
14116;SDS011;7137;51.436;6.544;2024-03-02T11:54:17;2.03;;;0.90;;
14116;SDS011;7137;51.436;6.544;2024-03-02T11:57:19;2.93;;;0.93;;
14116;SDS011;7137;51.436;6.544;2024-03-02T12:00:23;3.40;;;0.97;;
14116;SDS011;7137;51.436;6.544;2024-03-02T12:03:25;2.43;;;0.93;;
14116;SDS011;7137;51.436;6.544;2024-03-02T12:06:27;2.80;;;1.07;;
14116;SDS011;7137;51.436;6.544;2024-03-02T12:09:30;2.10;;;0.80;;
14116;SDS011;7137;51.436;6.544;2024-03-02T12:12:31;4.13;;;1.07;;
14116;SDS011;7137;51.436;6.544;2024-03-02T12:15:35;4.33;;;1.10;;
14116;SDS011;7137;51.436;6.544;2024-03-02T12:18:37;3.20;;;0.90;;
14116;SDS011;7137;51.436;6.544;2024-03-02T12:21:40;2.23;;;0.80;;
14116;SDS011;7137;51.436;6.544;2024-03-02T12:24:42;4.67;;;1.10;;
14116;SDS011;7137;51.436;6.544;2024-03-02T12:27:45;2.83;;;0.93;;
14116;SDS011;7137;51.436;6.544;2024-03-02T12:30:48;4.87;;;1.10;;
14116;SDS011;7137;51.436;6.544;2024-03-02T12:33:51;4.87;;;1.07;;
14116;SDS011;7137;51.436;6.544;2024-03-02T12:36:52;4.50;;;1.00;;
14116;SDS011;7137;51.436;6.544;2024-03-02T12:39:54;2.70;;;0.90;;
14116;SDS011;7137;51.436;6.544;2024-03-02T12:42:55;2.70;;;1.00;;
14116;SDS011;7137;51.436;6.544;2024-03-02T12:45:59;2.77;;;0.90;;
14116;SDS011;7137;51.436;6.544;2024-03-02T12:49:05;3.00;;;1.00;;
14116;SDS011;7137;51.436;6.544;2024-03-02T12:52:11;3.33;;;0.97;;
14116;SDS011;7137;51.436;6.544;2024-03-02T12:55:13;2.77;;;0.93;;
14116;SDS011;7137;51.436;6.544;2024-03-02T12:58:18;2.97;;;1.07;;
14116;SDS011;7137;51.436;6.544;2024-03-02T13:01:22;2.47;;;1.03;;
14116;SDS011;7137;51.436;6.544;2024-03-02T13:04:24;3.00;;;1.10;;
14116;SDS011;7137;51.436;6.544;2024-03-02T13:07:26;4.77;;;1.17;;
14116;SDS011;7137;51.436;6.544;2024-03-02T13:10:28;2.97;;;1.00;;
14116;SDS011;7137;51.436;6.544;2024-03-02T13:13:30;2.10;;;0.90;;
14116;SDS011;7137;51.436;6.544;2024-03-02T13:16:33;4.00;;;1.20;;
14116;SDS011;7137;51.436;6.544;2024-03-02T13:19:43;3.27;;;0.90;;
14116;SDS011;7137;51.436;6.544;2024-03-02T13:22:51;3.00;;;1.07;;
14116;SDS011;7137;51.436;6.544;2024-03-02T13:25:53;1.67;;;0.90;;
14116;SDS011;7137;51.436;6.544;2024-03-02T13:28:54;2.83;;;1.07;;
14116;SDS011;7137;51.436;6.544;2024-03-02T13:31:57;2.47;;;0.90;;
14116;SDS011;7137;51.436;6.544;2024-03-02T13:34:59;1.83;;;0.93;;
14116;SDS011;7137;51.436;6.544;2024-03-02T13:38:00;3.50;;;0.90;;
14116;SDS011;7137;51.436;6.544;2024-03-02T13:41:02;2.23;;;1.07;;
14116;SDS011;7137;51.436;6.544;2024-03-02T13:44:04;3.97;;;1.30;;
14116;SDS011;7137;51.436;6.544;2024-03-02T13:47:07;2.70;;;1.10;;
14116;SDS011;7137;51.436;6.544;2024-03-02T13:50:09;5.27;;;1.37;;
14116;SDS011;7137;51.436;6.544;2024-03-02T13:53:10;2.13;;;0.90;;
14116;SDS011;7137;51.436;6.544;2024-03-02T13:56:12;3.77;;;1.10;;
14116;SDS011;7137;51.436;6.544;2024-03-02T13:59:14;3.00;;;1.20;;
14116;SDS011;7137;51.436;6.544;2024-03-02T14:02:17;3.70;;;1.27;;
14116;SDS011;7137;51.436;6.544;2024-03-02T14:05:18;3.17;;;1.20;;
14116;SDS011;7137;51.436;6.544;2024-03-02T14:08:20;3.60;;;1.60;;
14116;SDS011;7137;51.436;6.544;2024-03-02T14:11:21;3.60;;;1.20;;
14116;SDS011;7137;51.436;6.544;2024-03-02T14:14:23;3.00;;;1.20;;
14116;SDS011;7137;51.436;6.544;2024-03-02T14:17:26;3.23;;;1.40;;
14116;SDS011;7137;51.436;6.544;2024-03-02T14:20:28;1.90;;;0.90;;
14116;SDS011;7137;51.436;6.544;2024-03-02T14:23:29;2.30;;;1.10;;
14116;SDS011;7137;51.436;6.544;2024-03-02T14:26:31;3.17;;;1.10;;
14116;SDS011;7137;51.436;6.544;2024-03-02T14:29:33;2.90;;;1.50;;
14116;SDS011;7137;51.436;6.544;2024-03-02T14:32:38;3.77;;;1.33;;
14116;SDS011;7137;51.436;6.544;2024-03-02T14:35:40;1.73;;;0.90;;
14116;SDS011;7137;51.436;6.544;2024-03-02T14:38:42;1.83;;;0.90;;
14116;SDS011;7137;51.436;6.544;2024-03-02T14:41:43;1.97;;;1.07;;
14116;SDS011;7137;51.436;6.544;2024-03-02T14:44:45;3.33;;;1.23;;
14116;SDS011;7137;51.436;6.544;2024-03-02T14:47:48;1.57;;;1.00;;
14116;SDS011;7137;51.436;6.544;2024-03-02T14:50:50;2.93;;;1.10;;
14116;SDS011;7137;51.436;6.544;2024-03-02T14:53:52;3.00;;;1.50;;
14116;SDS011;7137;51.436;6.544;2024-03-02T14:56:53;2.77;;;1.40;;
14116;SDS011;7137;51.436;6.544;2024-03-02T14:59:56;4.40;;;2.10;;
14116;SDS011;7137;51.436;6.544;2024-03-02T15:02:59;2.27;;;1.20;;
14116;SDS011;7137;51.436;6.544;2024-03-02T15:06:01;1.87;;;0.97;;
14116;SDS011;7137;51.436;6.544;2024-03-02T15:09:04;3.83;;;1.23;;
14116;SDS011;7137;51.436;6.544;2024-03-02T15:12:06;2.57;;;1.40;;
14116;SDS011;7137;51.436;6.544;2024-03-02T15:15:09;2.73;;;1.10;;
14116;SDS011;7137;51.436;6.544;2024-03-02T15:18:13;2.17;;;1.00;;
14116;SDS011;7137;51.436;6.544;2024-03-02T15:21:14;2.67;;;1.10;;
14116;SDS011;7137;51.436;6.544;2024-03-02T15:24:16;1.73;;;0.97;;
14116;SDS011;7137;51.436;6.544;2024-03-02T15:27:17;2.40;;;1.23;;
14116;SDS011;7137;51.436;6.544;2024-03-02T15:30:19;2.90;;;1.40;;
14116;SDS011;7137;51.436;6.544;2024-03-02T15:33:22;3.50;;;1.20;;
14116;SDS011;7137;51.436;6.544;2024-03-02T15:36:25;3.97;;;1.10;;
14116;SDS011;7137;51.436;6.544;2024-03-02T15:39:27;2.50;;;1.33;;
14116;SDS011;7137;51.436;6.544;2024-03-02T15:42:28;1.70;;;1.10;;
14116;SDS011;7137;51.436;6.544;2024-03-02T15:45:30;1.80;;;1.10;;
14116;SDS011;7137;51.436;6.544;2024-03-02T15:48:35;2.27;;;0.93;;
14116;SDS011;7137;51.436;6.544;2024-03-02T15:51:37;2.57;;;1.10;;
14116;SDS011;7137;51.436;6.544;2024-03-02T15:54:40;3.87;;;1.17;;
14116;SDS011;7137;51.436;6.544;2024-03-02T15:57:43;3.23;;;1.07;;
14116;SDS011;7137;51.436;6.544;2024-03-02T16:00:45;3.17;;;1.00;;
14116;SDS011;7137;51.436;6.544;2024-03-02T16:03:48;2.43;;;1.10;;
14116;SDS011;7137;51.436;6.544;2024-03-02T16:06:49;3.07;;;1.20;;
14116;SDS011;7137;51.436;6.544;2024-03-02T16:09:51;4.10;;;1.07;;
14116;SDS011;7137;51.436;6.544;2024-03-02T16:12:53;1.67;;;0.97;;
14116;SDS011;7137;51.436;6.544;2024-03-02T16:15:55;2.17;;;1.00;;
14116;SDS011;7137;51.436;6.544;2024-03-02T16:18:58;2.67;;;1.00;;
14116;SDS011;7137;51.436;6.544;2024-03-02T16:22:00;2.97;;;1.13;;
14116;SDS011;7137;51.436;6.544;2024-03-02T16:25:01;1.67;;;0.93;;
14116;SDS011;7137;51.436;6.544;2024-03-02T16:28:04;2.23;;;1.00;;
14116;SDS011;7137;51.436;6.544;2024-03-02T16:31:06;3.43;;;1.20;;
14116;SDS011;7137;51.436;6.544;2024-03-02T16:34:10;2.20;;;0.90;;
14116;SDS011;7137;51.436;6.544;2024-03-02T16:37:12;2.30;;;1.00;;
14116;SDS011;7137;51.436;6.544;2024-03-02T16:40:13;2.07;;;1.00;;
14116;SDS011;7137;51.436;6.544;2024-03-02T16:43:15;2.37;;;1.10;;
14116;SDS011;7137;51.436;6.544;2024-03-02T16:46:16;2.93;;;1.20;;
14116;SDS011;7137;51.436;6.544;2024-03-02T16:49:19;2.50;;;1.00;;
14116;SDS011;7137;51.436;6.544;2024-03-02T16:52:21;1.70;;;1.00;;
14116;SDS011;7137;51.436;6.544;2024-03-02T16:55:24;2.23;;;1.13;;
14116;SDS011;7137;51.436;6.544;2024-03-02T16:58:25;3.23;;;1.40;;
14116;SDS011;7137;51.436;6.544;2024-03-02T17:01:27;2.57;;;1.30;;
14116;SDS011;7137;51.436;6.544;2024-03-02T17:04:30;2.50;;;1.17;;
14116;SDS011;7137;51.436;6.544;2024-03-02T17:07:33;3.20;;;1.20;;
14116;SDS011;7137;51.436;6.544;2024-03-02T17:10:35;3.00;;;1.40;;
14116;SDS011;7137;51.436;6.544;2024-03-02T17:13:36;3.13;;;1.47;;
14116;SDS011;7137;51.436;6.544;2024-03-02T17:16:38;4.37;;;1.30;;
14116;SDS011;7137;51.436;6.544;2024-03-02T17:19:42;3.17;;;1.20;;
14116;SDS011;7137;51.436;6.544;2024-03-02T17:22:44;3.30;;;1.30;;
14116;SDS011;7137;51.436;6.544;2024-03-02T17:25:45;3.37;;;1.50;;
14116;SDS011;7137;51.436;6.544;2024-03-02T17:28:48;2.30;;;1.10;;
14116;SDS011;7137;51.436;6.544;2024-03-02T17:31:50;2.90;;;1.13;;
14116;SDS011;7137;51.436;6.544;2024-03-02T17:34:53;2.07;;;1.20;;
14116;SDS011;7137;51.436;6.544;2024-03-02T17:37:54;2.63;;;1.10;;
14116;SDS011;7137;51.436;6.544;2024-03-02T17:40:56;3.67;;;1.20;;
14116;SDS011;7137;51.436;6.544;2024-03-02T17:43:58;2.67;;;1.00;;
14116;SDS011;7137;51.436;6.544;2024-03-02T17:46:59;2.40;;;1.20;;
14116;SDS011;7137;51.436;6.544;2024-03-02T17:50:02;2.73;;;0.97;;
14116;SDS011;7137;51.436;6.544;2024-03-02T17:53:05;2.07;;;1.00;;
14116;SDS011;7137;51.436;6.544;2024-03-02T17:56:09;2.87;;;1.10;;
14116;SDS011;7137;51.436;6.544;2024-03-02T17:59:11;1.97;;;1.10;;
14116;SDS011;7137;51.436;6.544;2024-03-02T18:02:12;2.07;;;1.10;;
14116;SDS011;7137;51.436;6.544;2024-03-02T18:05:15;1.93;;;1.03;;
14116;SDS011;7137;51.436;6.544;2024-03-02T18:08:17;2.20;;;1.00;;
14116;SDS011;7137;51.436;6.544;2024-03-02T18:11:19;3.10;;;1.23;;
14116;SDS011;7137;51.436;6.544;2024-03-02T18:14:23;3.73;;;1.50;;
14116;SDS011;7137;51.436;6.544;2024-03-02T18:17:25;3.10;;;1.50;;
14116;SDS011;7137;51.436;6.544;2024-03-02T18:20:28;2.93;;;1.40;;
14116;SDS011;7137;51.436;6.544;2024-03-02T18:23:29;3.30;;;1.50;;
14116;SDS011;7137;51.436;6.544;2024-03-02T18:26:31;4.27;;;1.87;;
14116;SDS011;7137;51.436;6.544;2024-03-02T18:29:34;3.50;;;1.70;;
14116;SDS011;7137;51.436;6.544;2024-03-02T18:32:36;3.23;;;1.20;;
14116;SDS011;7137;51.436;6.544;2024-03-02T18:35:39;2.87;;;1.50;;